sensor_id;sensor_type;location;lat;lon;timestamp;temperature;humidity
43414;DHT22;29013;49.676;8.606;2023-01-26T00:01:17;3.7;99.3
43414;DHT22;29013;49.676;8.606;2023-01-26T00:13:12;3.6;99.8
43414;DHT22;29013;49.676;8.606;2023-01-26T00:18:42;3.6;99.7
43414;DHT22;29013;49.676;8.606;2023-01-26T00:24:36;3.4;99.9
43414;DHT22;29013;49.676;8.606;2023-01-26T00:29:57;3.5;99.9
43414;DHT22;29013;49.676;8.606;2023-01-26T00:48:25;6.3;95.3
43414;DHT22;29013;49.676;8.606;2023-01-26T00:59:41;4.3;98.0
43414;DHT22;29013;49.676;8.606;2023-01-26T01:05:18;4.0;98.9
43414;DHT22;29013;49.676;8.606;2023-01-26T01:10:41;3.7;99.5
43414;DHT22;29013;49.676;8.606;2023-01-26T01:16:08;3.6;99.8
43414;DHT22;29013;49.676;8.606;2023-01-26T01:21:26;3.4;99.9
43414;DHT22;29013;49.676;8.606;2023-01-26T01:26:51;3.3;99.9
43414;DHT22;29013;49.676;8.606;2023-01-26T01:32:23;3.2;99.9
43414;DHT22;29013;49.676;8.606;2023-01-26T01:37:46;3.2;99.9
43414;DHT22;29013;49.676;8.606;2023-01-26T01:43:13;3.2;99.9
43414;DHT22;29013;49.676;8.606;2023-01-26T01:48:57;3.2;99.9
43414;DHT22;29013;49.676;8.606;2023-01-26T01:54:21;3.3;99.9
43414;DHT22;29013;49.676;8.606;2023-01-26T01:59:55;3.1;99.9
43414;DHT22;29013;49.676;8.606;2023-01-26T02:05:26;3.1;99.9
43414;DHT22;29013;49.676;8.606;2023-01-26T02:10:47;3.1;99.9
43414;DHT22;29013;49.676;8.606;2023-01-26T02:16:09;3.1;99.9
43414;DHT22;29013;49.676;8.606;2023-01-26T02:21:34;3.0;99.9
43414;DHT22;29013;49.676;8.606;2023-01-26T02:26:56;3.0;99.9
43414;DHT22;29013;49.676;8.606;2023-01-26T02:32:21;3.0;99.9
43414;DHT22;29013;49.676;8.606;2023-01-26T02:37:46;3.0;99.9
43414;DHT22;29013;49.676;8.606;2023-01-26T02:43:06;2.9;99.9
43414;DHT22;29013;49.676;8.606;2023-01-26T02:48:32;2.9;99.9
43414;DHT22;29013;49.676;8.606;2023-01-26T02:53:58;2.9;99.9
43414;DHT22;29013;49.676;8.606;2023-01-26T02:59:26;2.8;99.9
43414;DHT22;29013;49.676;8.606;2023-01-26T03:04:53;2.9;99.9
43414;DHT22;29013;49.676;8.606;2023-01-26T03:10:23;2.8;99.9
43414;DHT22;29013;49.676;8.606;2023-01-26T03:15:46;2.9;99.9
43414;DHT22;29013;49.676;8.606;2023-01-26T03:21:20;2.8;99.9
43414;DHT22;29013;49.676;8.606;2023-01-26T03:26:40;2.8;99.9
43414;DHT22;29013;49.676;8.606;2023-01-26T03:32:05;2.7;99.9
43414;DHT22;29013;49.676;8.606;2023-01-26T03:37:31;2.7;99.9
43414;DHT22;29013;49.676;8.606;2023-01-26T03:43:18;2.6;99.9
43414;DHT22;29013;49.676;8.606;2023-01-26T03:48:41;2.8;99.9
43414;DHT22;29013;49.676;8.606;2023-01-26T03:54:06;2.8;99.9
43414;DHT22;29013;49.676;8.606;2023-01-26T03:59:43;2.7;99.9
43414;DHT22;29013;49.676;8.606;2023-01-26T04:05:12;2.8;99.9
43414;DHT22;29013;49.676;8.606;2023-01-26T04:10:32;2.9;99.9
43414;DHT22;29013;49.676;8.606;2023-01-26T04:15:59;2.9;99.9
43414;DHT22;29013;49.676;8.606;2023-01-26T04:21:24;2.9;99.9
43414;DHT22;29013;49.676;8.606;2023-01-26T04:27:06;2.8;99.9
43414;DHT22;29013;49.676;8.606;2023-01-26T04:32:28;3.0;99.9
43414;DHT22;29013;49.676;8.606;2023-01-26T04:37:53;3.1;99.9
43414;DHT22;29013;49.676;8.606;2023-01-26T04:43:14;3.1;99.9
43414;DHT22;29013;49.676;8.606;2023-01-26T04:48:43;3.0;99.9
43414;DHT22;29013;49.676;8.606;2023-01-26T04:54:06;3.1;99.9
43414;DHT22;29013;49.676;8.606;2023-01-26T04:59:31;3.0;99.9
43414;DHT22;29013;49.676;8.606;2023-01-26T05:05:20;3.1;99.9
43414;DHT22;29013;49.676;8.606;2023-01-26T05:10:41;3.2;99.9
43414;DHT22;29013;49.676;8.606;2023-01-26T05:16:06;3.1;99.9
43414;DHT22;29013;49.676;8.606;2023-01-26T05:21:30;3.0;99.9
43414;DHT22;29013;49.676;8.606;2023-01-26T05:27:06;2.9;99.9
43414;DHT22;29013;49.676;8.606;2023-01-26T05:32:42;2.8;99.9
43414;DHT22;29013;49.676;8.606;2023-01-26T05:44:47;2.9;99.9
43414;DHT22;29013;49.676;8.606;2023-01-26T05:50:13;2.8;99.9
43414;DHT22;29013;49.676;8.606;2023-01-26T05:55:32;2.6;99.9
43414;DHT22;29013;49.676;8.606;2023-01-26T06:00:56;2.5;99.9
43414;DHT22;29013;49.676;8.606;2023-01-26T06:28:01;5.4;98.7
43414;DHT22;29013;49.676;8.606;2023-01-26T06:33:21;4.3;99.9
43414;DHT22;29013;49.676;8.606;2023-01-26T06:38:45;3.4;99.9
43414;DHT22;29013;49.676;8.606;2023-01-26T06:44:07;3.0;99.9
43414;DHT22;29013;49.676;8.606;2023-01-26T06:49:28;2.8;99.9
43414;DHT22;29013;49.676;8.606;2023-01-26T06:54:52;2.6;99.9
43414;DHT22;29013;49.676;8.606;2023-01-26T07:00:21;2.4;99.9
43414;DHT22;29013;49.676;8.606;2023-01-26T07:05:41;2.3;99.9
43414;DHT22;29013;49.676;8.606;2023-01-26T07:11:06;2.3;99.9
43414;DHT22;29013;49.676;8.606;2023-01-26T07:16:55;2.1;99.9
43414;DHT22;29013;49.676;8.606;2023-01-26T07:22:17;2.3;99.9
43414;DHT22;29013;49.676;8.606;2023-01-26T07:27:39;2.3;99.9
43414;DHT22;29013;49.676;8.606;2023-01-26T07:33:03;2.1;99.9
43414;DHT22;29013;49.676;8.606;2023-01-26T07:38:39;2.2;99.9
43414;DHT22;29013;49.676;8.606;2023-01-26T07:43:59;2.3;99.9
43414;DHT22;29013;49.676;8.606;2023-01-26T07:49:56;2.2;99.9
43414;DHT22;29013;49.676;8.606;2023-01-26T07:55:16;2.3;99.9
43414;DHT22;29013;49.676;8.606;2023-01-26T08:00:41;2.3;99.9
43414;DHT22;29013;49.676;8.606;2023-01-26T08:06:07;2.3;99.9
43414;DHT22;29013;49.676;8.606;2023-01-26T08:11:29;2.2;99.9
43414;DHT22;29013;49.676;8.606;2023-01-26T08:16:53;2.2;99.9
43414;DHT22;29013;49.676;8.606;2023-01-26T08:22:34;2.2;99.9
43414;DHT22;29013;49.676;8.606;2023-01-26T08:27:58;2.3;99.9
43414;DHT22;29013;49.676;8.606;2023-01-26T08:33:22;2.3;99.9
43414;DHT22;29013;49.676;8.606;2023-01-26T08:38:47;2.3;99.9
43414;DHT22;29013;49.676;8.606;2023-01-26T08:44:24;2.2;99.9
43414;DHT22;29013;49.676;8.606;2023-01-26T08:49:44;2.3;99.9
43414;DHT22;29013;49.676;8.606;2023-01-26T08:55:09;2.4;99.9
43414;DHT22;29013;49.676;8.606;2023-01-26T09:00:33;2.4;99.9
43414;DHT22;29013;49.676;8.606;2023-01-26T09:05:57;2.5;99.9
43414;DHT22;29013;49.676;8.606;2023-01-26T09:11:18;2.5;99.9
43414;DHT22;29013;49.676;8.606;2023-01-26T09:16:43;2.5;99.9
43414;DHT22;29013;49.676;8.606;2023-01-26T09:22:30;2.4;99.9
43414;DHT22;29013;49.676;8.606;2023-01-26T09:27:51;2.6;99.9
43414;DHT22;29013;49.676;8.606;2023-01-26T09:33:16;2.6;99.9
43414;DHT22;29013;49.676;8.606;2023-01-26T09:38:38;2.5;99.9
43414;DHT22;29013;49.676;8.606;2023-01-26T09:44:29;2.5;99.9
43414;DHT22;29013;49.676;8.606;2023-01-26T09:49:50;2.7;99.9
43414;DHT22;29013;49.676;8.606;2023-01-26T09:55:11;2.7;99.9
43414;DHT22;29013;49.676;8.606;2023-01-26T10:00:31;2.5;99.9
43414;DHT22;29013;49.676;8.606;2023-01-26T10:05:56;2.5;99.9
43414;DHT22;29013;49.676;8.606;2023-01-26T10:11:50;2.3;99.9
43414;DHT22;29013;49.676;8.606;2023-01-26T10:17:32;2.5;99.9
43414;DHT22;29013;49.676;8.606;2023-01-26T10:22:54;2.7;99.9
43414;DHT22;29013;49.676;8.606;2023-01-26T10:28:38;2.6;99.9
43414;DHT22;29013;49.676;8.606;2023-01-26T10:34:07;2.7;99.9
43414;DHT22;29013;49.676;8.606;2023-01-26T10:39:26;2.6;99.9
43414;DHT22;29013;49.676;8.606;2023-01-26T10:44:49;2.5;99.9
43414;DHT22;29013;49.676;8.606;2023-01-26T10:50:33;2.4;99.9
43414;DHT22;29013;49.676;8.606;2023-01-26T10:56:02;2.6;99.9
43414;DHT22;29013;49.676;8.606;2023-01-26T11:38:20;6.2;95.0
43414;DHT22;29013;49.676;8.606;2023-01-26T11:50:53;3.9;97.9
43414;DHT22;29013;49.676;8.606;2023-01-26T12:03:32;3.4;99.1
43414;DHT22;29013;49.676;8.606;2023-01-26T12:08:51;3.1;99.0
43414;DHT22;29013;49.676;8.606;2023-01-26T12:14:22;2.8;99.3
43414;DHT22;29013;49.676;8.606;2023-01-26T12:20:20;2.6;99.9
43414;DHT22;29013;49.676;8.606;2023-01-26T12:25:43;2.8;99.8
43414;DHT22;29013;49.676;8.606;2023-01-26T12:31:08;2.7;99.9
43414;DHT22;29013;49.676;8.606;2023-01-26T12:36:50;2.7;99.8
43414;DHT22;29013;49.676;8.606;2023-01-26T13:03:25;4.3;95.0
43414;DHT22;29013;49.676;8.606;2023-01-26T13:08:58;3.4;96.6
43414;DHT22;29013;49.676;8.606;2023-01-26T13:14:31;3.0;97.2
43414;DHT22;29013;49.676;8.606;2023-01-26T13:19:55;2.9;97.8
43414;DHT22;29013;49.676;8.606;2023-01-26T13:25:24;2.8;97.9
43414;DHT22;29013;49.676;8.606;2023-01-26T13:30:44;2.6;97.9
43414;DHT22;29013;49.676;8.606;2023-01-26T13:36:12;2.5;98.0
43414;DHT22;29013;49.676;8.606;2023-01-26T13:41:34;2.5;98.0
43414;DHT22;29013;49.676;8.606;2023-01-26T13:47:00;2.5;98.2
43414;DHT22;29013;49.676;8.606;2023-01-26T13:52:21;2.4;98.0
43414;DHT22;29013;49.676;8.606;2023-01-26T13:57:45;2.4;98.0
43414;DHT22;29013;49.676;8.606;2023-01-26T14:03:19;2.5;98.1
43414;DHT22;29013;49.676;8.606;2023-01-26T14:08:43;2.6;98.1
43414;DHT22;29013;49.676;8.606;2023-01-26T14:14:15;2.5;98.1
43414;DHT22;29013;49.676;8.606;2023-01-26T14:19:31;2.5;98.4
43414;DHT22;29013;49.676;8.606;2023-01-26T14:24:55;2.4;98.6
43414;DHT22;29013;49.676;8.606;2023-01-26T14:30:26;2.5;98.8
43414;DHT22;29013;49.676;8.606;2023-01-26T14:35:55;2.6;98.4
43414;DHT22;29013;49.676;8.606;2023-01-26T14:41:17;2.6;98.3
43414;DHT22;29013;49.676;8.606;2023-01-26T14:46:45;2.5;98.2
43414;DHT22;29013;49.676;8.606;2023-01-26T14:52:12;2.5;98.5
43414;DHT22;29013;49.676;8.606;2023-01-26T14:57:34;2.4;98.3
43414;DHT22;29013;49.676;8.606;2023-01-26T15:02:57;2.4;98.4
43414;DHT22;29013;49.676;8.606;2023-01-26T15:08:22;2.2;98.3
43414;DHT22;29013;49.676;8.606;2023-01-26T15:13:45;2.2;98.5
43414;DHT22;29013;49.676;8.606;2023-01-26T15:19:21;2.2;98.2
43414;DHT22;29013;49.676;8.606;2023-01-26T15:24:41;2.5;98.3
43414;DHT22;29013;49.676;8.606;2023-01-26T15:30:14;2.4;98.1
43414;DHT22;29013;49.676;8.606;2023-01-26T15:36:16;2.5;98.3
43414;DHT22;29013;49.676;8.606;2023-01-26T15:41:31;2.7;96.8
43414;DHT22;29013;49.676;8.606;2023-01-26T15:46:55;2.6;97.0
43414;DHT22;29013;49.676;8.606;2023-01-26T15:52:18;2.5;97.2
43414;DHT22;29013;49.676;8.606;2023-01-26T15:58:30;2.5;97.2
43414;DHT22;29013;49.676;8.606;2023-01-26T16:18:29;5.5;92.0
43414;DHT22;29013;49.676;8.606;2023-01-26T16:23:43;4.3;93.7
43414;DHT22;29013;49.676;8.606;2023-01-26T16:29:08;3.4;94.9
43414;DHT22;29013;49.676;8.606;2023-01-26T16:34:30;2.9;95.9
43414;DHT22;29013;49.676;8.606;2023-01-26T16:39:53;2.7;96.4
43414;DHT22;29013;49.676;8.606;2023-01-26T16:45:20;2.5;97.0
43414;DHT22;29013;49.676;8.606;2023-01-26T16:50:57;2.4;97.1
43414;DHT22;29013;49.676;8.606;2023-01-26T16:56:19;2.5;97.1
43414;DHT22;29013;49.676;8.606;2023-01-26T17:01:44;2.6;97.1
43414;DHT22;29013;49.676;8.606;2023-01-26T17:07:08;2.6;97.4
43414;DHT22;29013;49.676;8.606;2023-01-26T17:12:36;2.5;97.3
43414;DHT22;29013;49.676;8.606;2023-01-26T17:18:00;2.6;98.0
43414;DHT22;29013;49.676;8.606;2023-01-26T17:23:20;2.6;97.8
43414;DHT22;29013;49.676;8.606;2023-01-26T17:29:04;2.6;98.3
43414;DHT22;29013;49.676;8.606;2023-01-26T17:34:27;2.9;97.8
43414;DHT22;29013;49.676;8.606;2023-01-26T17:39:52;2.9;97.9
43414;DHT22;29013;49.676;8.606;2023-01-26T17:45:15;2.9;98.1
43414;DHT22;29013;49.676;8.606;2023-01-26T17:50:47;2.8;97.7
43414;DHT22;29013;49.676;8.606;2023-01-26T17:56:27;2.7;98.4
43414;DHT22;29013;49.676;8.606;2023-01-26T18:01:47;2.9;98.3
43414;DHT22;29013;49.676;8.606;2023-01-26T18:07:37;2.7;98.6
43414;DHT22;29013;49.676;8.606;2023-01-26T18:12:58;2.6;98.6
43414;DHT22;29013;49.676;8.606;2023-01-26T18:18:21;2.6;98.7
43414;DHT22;29013;49.676;8.606;2023-01-26T18:23:48;2.6;98.9
43414;DHT22;29013;49.676;8.606;2023-01-26T18:29:07;2.5;99.1
43414;DHT22;29013;49.676;8.606;2023-01-26T18:34:26;2.4;99.3
43414;DHT22;29013;49.676;8.606;2023-01-26T18:40:14;2.3;99.4
43414;DHT22;29013;49.676;8.606;2023-01-26T18:46:01;2.4;99.7
43414;DHT22;29013;49.676;8.606;2023-01-26T18:51:21;2.4;99.7
43414;DHT22;29013;49.676;8.606;2023-01-26T18:56:43;2.3;99.9
43414;DHT22;29013;49.676;8.606;2023-01-26T19:02:06;2.3;99.9
43414;DHT22;29013;49.676;8.606;2023-01-26T19:07:30;2.3;99.9
43414;DHT22;29013;49.676;8.606;2023-01-26T19:12:52;2.2;99.9
43414;DHT22;29013;49.676;8.606;2023-01-26T19:18:12;2.1;99.9
43414;DHT22;29013;49.676;8.606;2023-01-26T19:23:36;2.2;99.9
43414;DHT22;29013;49.676;8.606;2023-01-26T19:28:58;2.2;99.9
43414;DHT22;29013;49.676;8.606;2023-01-26T19:34:22;2.1;99.9
43414;DHT22;29013;49.676;8.606;2023-01-26T19:39:46;2.1;99.9
43414;DHT22;29013;49.676;8.606;2023-01-26T19:45:24;2.1;99.9
43414;DHT22;29013;49.676;8.606;2023-01-26T19:51:03;2.0;99.9
43414;DHT22;29013;49.676;8.606;2023-01-26T19:56:22;2.1;99.9
43414;DHT22;29013;49.676;8.606;2023-01-26T20:01:44;2.1;99.9
43414;DHT22;29013;49.676;8.606;2023-01-26T20:07:06;2.1;99.9
43414;DHT22;29013;49.676;8.606;2023-01-26T20:12:48;2.1;99.9
43414;DHT22;29013;49.676;8.606;2023-01-26T20:18:11;2.2;99.9
43414;DHT22;29013;49.676;8.606;2023-01-26T20:23:32;2.2;99.9
43414;DHT22;29013;49.676;8.606;2023-01-26T20:28:54;2.3;99.9
43414;DHT22;29013;49.676;8.606;2023-01-26T20:34:29;2.3;99.9
43414;DHT22;29013;49.676;8.606;2023-01-26T20:39:53;2.5;99.9
43414;DHT22;29013;49.676;8.606;2023-01-26T20:45:17;2.4;99.9
43414;DHT22;29013;49.676;8.606;2023-01-26T20:50:41;2.5;99.9
43414;DHT22;29013;49.676;8.606;2023-01-26T20:56:09;2.5;99.9
43414;DHT22;29013;49.676;8.606;2023-01-26T21:01:38;2.5;99.9
43414;DHT22;29013;49.676;8.606;2023-01-26T21:07:03;2.6;99.9
43414;DHT22;29013;49.676;8.606;2023-01-26T21:12:29;2.5;99.9
43414;DHT22;29013;49.676;8.606;2023-01-26T21:17:54;2.4;99.9
43414;DHT22;29013;49.676;8.606;2023-01-26T21:23:36;2.5;99.9
43414;DHT22;29013;49.676;8.606;2023-01-26T21:28:58;2.5;99.9
43414;DHT22;29013;49.676;8.606;2023-01-26T21:34:42;2.3;99.9
43414;DHT22;29013;49.676;8.606;2023-01-26T21:52:39;5.1;98.2
43414;DHT22;29013;49.676;8.606;2023-01-26T21:58:01;3.9;99.9
43414;DHT22;29013;49.676;8.606;2023-01-26T22:03:29;3.2;99.9
43414;DHT22;29013;49.676;8.606;2023-01-26T22:08:48;2.9;99.9
43414;DHT22;29013;49.676;8.606;2023-01-26T22:14:14;2.8;99.9
43414;DHT22;29013;49.676;8.606;2023-01-26T22:19:35;2.7;99.9
43414;DHT22;29013;49.676;8.606;2023-01-26T22:24:57;2.7;99.9
43414;DHT22;29013;49.676;8.606;2023-01-26T22:30:20;2.6;99.9
43414;DHT22;29013;49.676;8.606;2023-01-26T22:35:47;2.3;99.9
43414;DHT22;29013;49.676;8.606;2023-01-26T22:41:29;2.2;99.9
43414;DHT22;29013;49.676;8.606;2023-01-26T22:47:13;2.2;99.9
43414;DHT22;29013;49.676;8.606;2023-01-26T22:52:35;2.2;99.9
43414;DHT22;29013;49.676;8.606;2023-01-26T22:58:00;2.0;99.9
43414;DHT22;29013;49.676;8.606;2023-01-26T23:03:26;2.1;99.9
43414;DHT22;29013;49.676;8.606;2023-01-26T23:08:51;2.0;99.9
43414;DHT22;29013;49.676;8.606;2023-01-26T23:14:13;2.1;99.9
43414;DHT22;29013;49.676;8.606;2023-01-26T23:32:40;5.6;99.0
43414;DHT22;29013;49.676;8.606;2023-01-26T23:52:40;6.2;95.9
